sensor_id;sensor_type;location;lat;lon;timestamp;temperature;humidity
44695;DHT22;32845;59.422;17.930;2022-12-07T00:03:46;-5.10;99.90
44695;DHT22;32845;59.422;17.930;2022-12-07T00:08:17;-5.00;99.90
44695;DHT22;32845;59.422;17.930;2022-12-07T00:12:48;-5.00;99.90
44695;DHT22;32845;59.422;17.930;2022-12-07T00:17:18;-4.90;99.90
44695;DHT22;32845;59.422;17.930;2022-12-07T00:21:49;-4.80;99.90
44695;DHT22;32845;59.422;17.930;2022-12-07T00:26:34;-4.80;99.90
44695;DHT22;32845;59.422;17.930;2022-12-07T00:31:10;-4.80;99.90
44695;DHT22;32845;59.422;17.930;2022-12-07T00:35:41;-4.70;99.90
44695;DHT22;32845;59.422;17.930;2022-12-07T00:40:12;-4.70;99.90
44695;DHT22;32845;59.422;17.930;2022-12-07T00:44:42;-4.70;99.90
44695;DHT22;32845;59.422;17.930;2022-12-07T00:49:13;-4.70;99.90
44695;DHT22;32845;59.422;17.930;2022-12-07T00:53:44;-4.70;99.90
44695;DHT22;32845;59.422;17.930;2022-12-07T00:58:15;-4.70;99.90
44695;DHT22;32845;59.422;17.930;2022-12-07T01:02:46;-4.70;99.90
44695;DHT22;32845;59.422;17.930;2022-12-07T01:07:16;-4.70;99.90
44695;DHT22;32845;59.422;17.930;2022-12-07T01:11:47;-4.70;99.90
44695;DHT22;32845;59.422;17.930;2022-12-07T01:16:19;-4.70;99.90
44695;DHT22;32845;59.422;17.930;2022-12-07T01:21:09;-4.60;99.90
44695;DHT22;32845;59.422;17.930;2022-12-07T01:25:45;-4.60;99.90
44695;DHT22;32845;59.422;17.930;2022-12-07T01:30:23;-4.60;99.90
44695;DHT22;32845;59.422;17.930;2022-12-07T01:34:54;-4.60;99.90
44695;DHT22;32845;59.422;17.930;2022-12-07T01:39:25;-4.60;99.90
44695;DHT22;32845;59.422;17.930;2022-12-07T01:48:48;-4.60;99.90
44695;DHT22;32845;59.422;17.930;2022-12-07T01:53:19;-4.60;99.90
44695;DHT22;32845;59.422;17.930;2022-12-07T01:57:53;-4.60;99.90
44695;DHT22;32845;59.422;17.930;2022-12-07T02:02:36;-4.60;99.90
44695;DHT22;32845;59.422;17.930;2022-12-07T02:07:08;-4.60;99.90
44695;DHT22;32845;59.422;17.930;2022-12-07T02:11:39;-4.70;99.90
44695;DHT22;32845;59.422;17.930;2022-12-07T02:20:54;-4.70;99.90
44695;DHT22;32845;59.422;17.930;2022-12-07T02:30:19;-4.70;99.90
44695;DHT22;32845;59.422;17.930;2022-12-07T02:35:02;-4.80;99.90
44695;DHT22;32845;59.422;17.930;2022-12-07T02:39:55;-4.70;99.90
44695;DHT22;32845;59.422;17.930;2022-12-07T02:44:28;-4.70;99.90
44695;DHT22;32845;59.422;17.930;2022-12-07T02:49:00;-4.70;99.90
44695;DHT22;32845;59.422;17.930;2022-12-07T02:53:42;-4.60;99.90
44695;DHT22;32845;59.422;17.930;2022-12-07T03:03:10;-4.60;99.90
44695;DHT22;32845;59.422;17.930;2022-12-07T03:12:44;-4.70;99.90
44695;DHT22;32845;59.422;17.930;2022-12-07T03:17:26;-4.70;99.90
44695;DHT22;32845;59.422;17.930;2022-12-07T03:22:01;-4.70;99.90
44695;DHT22;32845;59.422;17.930;2022-12-07T03:26:36;-4.70;99.90
44695;DHT22;32845;59.422;17.930;2022-12-07T03:31:15;-4.70;99.90
44695;DHT22;32845;59.422;17.930;2022-12-07T03:36:00;-4.70;99.90
44695;DHT22;32845;59.422;17.930;2022-12-07T03:40:42;-4.70;99.90
44695;DHT22;32845;59.422;17.930;2022-12-07T03:45:17;-4.70;99.90
44695;DHT22;32845;59.422;17.930;2022-12-07T03:50:12;-4.70;99.90
44695;DHT22;32845;59.422;17.930;2022-12-07T03:54:46;-4.60;99.90
44695;DHT22;32845;59.422;17.930;2022-12-07T03:59:19;-4.60;99.90
44695;DHT22;32845;59.422;17.930;2022-12-07T04:03:50;-4.60;99.90
44695;DHT22;32845;59.422;17.930;2022-12-07T04:08:20;-4.60;99.90
44695;DHT22;32845;59.422;17.930;2022-12-07T04:12:51;-4.60;99.90
44695;DHT22;32845;59.422;17.930;2022-12-07T04:17:22;-4.60;99.90
44695;DHT22;32845;59.422;17.930;2022-12-07T04:21:53;-4.60;99.90
44695;DHT22;32845;59.422;17.930;2022-12-07T04:26:23;-4.50;99.90
44695;DHT22;32845;59.422;17.930;2022-12-07T04:30:54;-4.50;99.90
44695;DHT22;32845;59.422;17.930;2022-12-07T04:35:25;-4.50;99.90
44695;DHT22;32845;59.422;17.930;2022-12-07T04:39:55;-4.50;99.90
44695;DHT22;32845;59.422;17.930;2022-12-07T04:44:27;-4.50;99.90
44695;DHT22;32845;59.422;17.930;2022-12-07T04:48:58;-4.50;99.90
44695;DHT22;32845;59.422;17.930;2022-12-07T04:53:34;-4.50;99.90
44695;DHT22;32845;59.422;17.930;2022-12-07T04:58:04;-4.50;99.90
44695;DHT22;32845;59.422;17.930;2022-12-07T05:02:35;-4.50;99.90
44695;DHT22;32845;59.422;17.930;2022-12-07T05:07:06;-4.50;99.90
44695;DHT22;32845;59.422;17.930;2022-12-07T05:11:36;-4.50;99.90
44695;DHT22;32845;59.422;17.930;2022-12-07T05:16:10;-4.50;99.90
44695;DHT22;32845;59.422;17.930;2022-12-07T05:20:41;-4.50;99.90
44695;DHT22;32845;59.422;17.930;2022-12-07T05:25:21;-4.50;99.90
44695;DHT22;32845;59.422;17.930;2022-12-07T05:29:52;-4.50;99.90
44695;DHT22;32845;59.422;17.930;2022-12-07T05:34:23;-4.50;99.90
44695;DHT22;32845;59.422;17.930;2022-12-07T05:38:54;-4.50;99.90
44695;DHT22;32845;59.422;17.930;2022-12-07T05:43:30;-4.60;99.90
44695;DHT22;32845;59.422;17.930;2022-12-07T05:48:01;-4.50;99.90
44695;DHT22;32845;59.422;17.930;2022-12-07T05:52:32;-4.60;99.90
44695;DHT22;32845;59.422;17.930;2022-12-07T05:57:07;-4.50;99.90
44695;DHT22;32845;59.422;17.930;2022-12-07T06:01:38;-4.60;99.90
44695;DHT22;32845;59.422;17.930;2022-12-07T06:06:09;-4.60;99.90
44695;DHT22;32845;59.422;17.930;2022-12-07T06:10:39;-4.60;99.90
44695;DHT22;32845;59.422;17.930;2022-12-07T06:15:10;-4.60;99.90
44695;DHT22;32845;59.422;17.930;2022-12-07T06:19:43;-4.60;99.90
44695;DHT22;32845;59.422;17.930;2022-12-07T06:24:19;-4.60;99.90
44695;DHT22;32845;59.422;17.930;2022-12-07T06:28:49;-4.60;99.90
44695;DHT22;32845;59.422;17.930;2022-12-07T06:33:20;-4.70;99.90
44695;DHT22;32845;59.422;17.930;2022-12-07T06:37:50;-4.70;99.90
44695;DHT22;32845;59.422;17.930;2022-12-07T06:42:21;-4.70;99.90
44695;DHT22;32845;59.422;17.930;2022-12-07T06:46:52;-4.80;99.90
44695;DHT22;32845;59.422;17.930;2022-12-07T06:51:23;-4.80;99.90
44695;DHT22;32845;59.422;17.930;2022-12-07T06:55:53;-4.80;99.90
44695;DHT22;32845;59.422;17.930;2022-12-07T07:00:24;-4.80;99.90
44695;DHT22;32845;59.422;17.930;2022-12-07T07:04:55;-4.90;99.90
44695;DHT22;32845;59.422;17.930;2022-12-07T07:09:26;-4.90;99.90
44695;DHT22;32845;59.422;17.930;2022-12-07T07:13:56;-4.90;99.90
44695;DHT22;32845;59.422;17.930;2022-12-07T07:18:29;-4.90;99.90
44695;DHT22;32845;59.422;17.930;2022-12-07T07:23:00;-4.90;99.90
44695;DHT22;32845;59.422;17.930;2022-12-07T07:27:30;-4.90;99.90
44695;DHT22;32845;59.422;17.930;2022-12-07T07:32:01;-4.90;99.90
44695;DHT22;32845;59.422;17.930;2022-12-07T07:36:32;-4.90;99.90
44695;DHT22;32845;59.422;17.930;2022-12-07T07:41:03;-4.90;99.90
44695;DHT22;32845;59.422;17.930;2022-12-07T07:45:34;-4.90;99.90
44695;DHT22;32845;59.422;17.930;2022-12-07T07:50:05;-4.90;99.90
44695;DHT22;32845;59.422;17.930;2022-12-07T07:54:36;-5.00;99.90
44695;DHT22;32845;59.422;17.930;2022-12-07T07:59:07;-5.00;99.90
44695;DHT22;32845;59.422;17.930;2022-12-07T08:03:48;-4.90;99.90
44695;DHT22;32845;59.422;17.930;2022-12-07T08:08:18;-4.90;99.90
44695;DHT22;32845;59.422;17.930;2022-12-07T08:12:49;-4.90;99.90
44695;DHT22;32845;59.422;17.930;2022-12-07T08:17:38;-4.80;99.90
44695;DHT22;32845;59.422;17.930;2022-12-07T08:22:08;-4.80;99.90
44695;DHT22;32845;59.422;17.930;2022-12-07T08:26:44;-4.80;99.90
44695;DHT22;32845;59.422;17.930;2022-12-07T08:31:17;-4.70;99.90
44695;DHT22;32845;59.422;17.930;2022-12-07T08:35:53;-4.70;99.90
44695;DHT22;32845;59.422;17.930;2022-12-07T08:40:24;-4.70;99.90
44695;DHT22;32845;59.422;17.930;2022-12-07T08:44:58;-4.60;99.90
44695;DHT22;32845;59.422;17.930;2022-12-07T08:49:38;-4.60;99.90
44695;DHT22;32845;59.422;17.930;2022-12-07T08:54:14;-4.60;99.90
44695;DHT22;32845;59.422;17.930;2022-12-07T08:58:47;-4.70;99.90
44695;DHT22;32845;59.422;17.930;2022-12-07T09:03:18;-4.60;99.90
44695;DHT22;32845;59.422;17.930;2022-12-07T09:07:51;-4.70;99.90
44695;DHT22;32845;59.422;17.930;2022-12-07T09:12:23;-4.70;99.90
44695;DHT22;32845;59.422;17.930;2022-12-07T09:16:54;-4.70;99.90
44695;DHT22;32845;59.422;17.930;2022-12-07T09:21:24;-4.60;99.90
44695;DHT22;32845;59.422;17.930;2022-12-07T09:25:59;-4.70;99.90
44695;DHT22;32845;59.422;17.930;2022-12-07T09:30:30;-4.60;99.90
44695;DHT22;32845;59.422;17.930;2022-12-07T09:35:01;-4.60;99.90
44695;DHT22;32845;59.422;17.930;2022-12-07T09:39:32;-4.60;99.90
44695;DHT22;32845;59.422;17.930;2022-12-07T09:44:12;-4.60;99.90
44695;DHT22;32845;59.422;17.930;2022-12-07T09:48:44;-4.60;99.90
44695;DHT22;32845;59.422;17.930;2022-12-07T09:53:22;-4.50;99.90
44695;DHT22;32845;59.422;17.930;2022-12-07T09:57:55;-4.50;99.90
44695;DHT22;32845;59.422;17.930;2022-12-07T10:02:40;-4.50;99.90
44695;DHT22;32845;59.422;17.930;2022-12-07T10:07:12;-4.50;99.90
44695;DHT22;32845;59.422;17.930;2022-12-07T10:12:06;-4.40;99.90
44695;DHT22;32845;59.422;17.930;2022-12-07T10:16:41;-4.30;99.90
44695;DHT22;32845;59.422;17.930;2022-12-07T10:21:15;-4.30;99.90
44695;DHT22;32845;59.422;17.930;2022-12-07T10:25:55;-4.20;99.90
44695;DHT22;32845;59.422;17.930;2022-12-07T10:30:26;-4.10;99.90
44695;DHT22;32845;59.422;17.930;2022-12-07T10:39:50;-3.90;99.90
44695;DHT22;32845;59.422;17.930;2022-12-07T10:44:24;-3.70;99.90
44695;DHT22;32845;59.422;17.930;2022-12-07T11:13:48;-2.70;99.90
44695;DHT22;32845;59.422;17.930;2022-12-07T11:18:27;-2.90;99.90
44695;DHT22;32845;59.422;17.930;2022-12-07T11:28:03;-3.00;99.90
44695;DHT22;32845;59.422;17.930;2022-12-07T11:37:25;-2.70;99.90
44695;DHT22;32845;59.422;17.930;2022-12-07T11:42:19;-2.70;99.90
44695;DHT22;32845;59.422;17.930;2022-12-07T11:47:20;-2.70;99.90
44695;DHT22;32845;59.422;17.930;2022-12-07T11:51:55;-2.80;99.90
44695;DHT22;32845;59.422;17.930;2022-12-07T11:56:35;-2.90;99.90
44695;DHT22;32845;59.422;17.930;2022-12-07T12:05:56;-3.00;99.90
44695;DHT22;32845;59.422;17.930;2022-12-07T12:20:47;-3.10;99.90
44695;DHT22;32845;59.422;17.930;2022-12-07T12:25:36;-3.10;99.90
44695;DHT22;32845;59.422;17.930;2022-12-07T12:35:27;-3.10;99.90
44695;DHT22;32845;59.422;17.930;2022-12-07T12:45:04;-3.10;99.90
44695;DHT22;32845;59.422;17.930;2022-12-07T12:55:18;-3.10;99.90
44695;DHT22;32845;59.422;17.930;2022-12-07T13:04:28;-3.20;99.90
44695;DHT22;32845;59.422;17.930;2022-12-07T13:08:59;-3.20;99.90
44695;DHT22;32845;59.422;17.930;2022-12-07T13:13:32;-3.20;99.90
44695;DHT22;32845;59.422;17.930;2022-12-07T13:22:59;-3.30;99.90
44695;DHT22;32845;59.422;17.930;2022-12-07T13:27:30;-3.40;99.90
44695;DHT22;32845;59.422;17.930;2022-12-07T13:32:01;-3.40;99.90
44695;DHT22;32845;59.422;17.930;2022-12-07T13:36:37;-3.50;99.90
44695;DHT22;32845;59.422;17.930;2022-12-07T13:41:15;-3.50;99.90
44695;DHT22;32845;59.422;17.930;2022-12-07T13:45:58;-3.50;99.90
44695;DHT22;32845;59.422;17.930;2022-12-07T13:50:31;-3.60;99.90
44695;DHT22;32845;59.422;17.930;2022-12-07T13:59:36;-3.60;99.90
44695;DHT22;32845;59.422;17.930;2022-12-07T14:04:35;-3.60;99.90
44695;DHT22;32845;59.422;17.930;2022-12-07T14:09:18;-3.70;99.90
44695;DHT22;32845;59.422;17.930;2022-12-07T14:13:56;-3.70;99.90
44695;DHT22;32845;59.422;17.930;2022-12-07T14:18:39;-3.80;99.90
44695;DHT22;32845;59.422;17.930;2022-12-07T14:23:25;-3.80;99.90
44695;DHT22;32845;59.422;17.930;2022-12-07T14:28:00;-3.80;99.90
44695;DHT22;32845;59.422;17.930;2022-12-07T14:32:31;-3.90;99.90
44695;DHT22;32845;59.422;17.930;2022-12-07T14:37:02;-3.90;99.90
44695;DHT22;32845;59.422;17.930;2022-12-07T14:41:32;-3.90;99.90
44695;DHT22;32845;59.422;17.930;2022-12-07T14:46:21;-3.90;99.90
44695;DHT22;32845;59.422;17.930;2022-12-07T14:50:53;-4.00;99.90
44695;DHT22;32845;59.422;17.930;2022-12-07T14:55:29;-4.00;99.90
44695;DHT22;32845;59.422;17.930;2022-12-07T15:00:00;-4.00;99.90
44695;DHT22;32845;59.422;17.930;2022-12-07T15:04:30;-4.10;99.90
44695;DHT22;32845;59.422;17.930;2022-12-07T15:09:01;-4.10;99.90
44695;DHT22;32845;59.422;17.930;2022-12-07T15:13:32;-4.10;99.90
44695;DHT22;32845;59.422;17.930;2022-12-07T15:18:23;-4.20;99.90
44695;DHT22;32845;59.422;17.930;2022-12-07T15:22:53;-4.20;99.90
44695;DHT22;32845;59.422;17.930;2022-12-07T15:27:24;-4.20;99.90
44695;DHT22;32845;59.422;17.930;2022-12-07T15:31:55;-4.30;99.90
44695;DHT22;32845;59.422;17.930;2022-12-07T15:36:28;-4.30;99.90
44695;DHT22;32845;59.422;17.930;2022-12-07T15:40:59;-4.40;99.90
44695;DHT22;32845;59.422;17.930;2022-12-07T15:45:29;-4.40;99.90
44695;DHT22;32845;59.422;17.930;2022-12-07T15:50:00;-4.40;99.90
44695;DHT22;32845;59.422;17.930;2022-12-07T15:54:36;-4.40;99.90
44695;DHT22;32845;59.422;17.930;2022-12-07T15:59:06;-4.50;99.90
44695;DHT22;32845;59.422;17.930;2022-12-07T16:03:37;-4.50;99.90
44695;DHT22;32845;59.422;17.930;2022-12-07T16:08:08;-4.50;99.90
44695;DHT22;32845;59.422;17.930;2022-12-07T16:12:39;-4.60;99.90
44695;DHT22;32845;59.422;17.930;2022-12-07T16:17:10;-4.60;99.90
44695;DHT22;32845;59.422;17.930;2022-12-07T16:21:40;-4.60;99.90
44695;DHT22;32845;59.422;17.930;2022-12-07T16:26:15;-4.60;99.90
44695;DHT22;32845;59.422;17.930;2022-12-07T16:30:46;-4.60;99.90
44695;DHT22;32845;59.422;17.930;2022-12-07T16:35:22;-4.70;99.90
44695;DHT22;32845;59.422;17.930;2022-12-07T16:39:53;-4.70;99.90
44695;DHT22;32845;59.422;17.930;2022-12-07T16:44:33;-4.70;99.90
44695;DHT22;32845;59.422;17.930;2022-12-07T16:49:04;-4.70;99.90
44695;DHT22;32845;59.422;17.930;2022-12-07T16:53:35;-4.70;99.90
44695;DHT22;32845;59.422;17.930;2022-12-07T16:58:07;-4.80;99.90
44695;DHT22;32845;59.422;17.930;2022-12-07T17:02:38;-4.80;99.90
44695;DHT22;32845;59.422;17.930;2022-12-07T17:07:08;-4.80;99.90
44695;DHT22;32845;59.422;17.930;2022-12-07T17:11:43;-4.80;99.90
44695;DHT22;32845;59.422;17.930;2022-12-07T17:16:14;-4.90;99.90
44695;DHT22;32845;59.422;17.930;2022-12-07T17:20:44;-4.80;99.90
44695;DHT22;32845;59.422;17.930;2022-12-07T17:25:20;-4.80;99.90
44695;DHT22;32845;59.422;17.930;2022-12-07T17:29:51;-4.80;99.90
44695;DHT22;32845;59.422;17.930;2022-12-07T17:34:21;-4.80;99.90
44695;DHT22;32845;59.422;17.930;2022-12-07T17:38:52;-4.80;99.90
44695;DHT22;32845;59.422;17.930;2022-12-07T17:43:23;-4.80;99.90
44695;DHT22;32845;59.422;17.930;2022-12-07T17:47:54;-4.90;99.90
44695;DHT22;32845;59.422;17.930;2022-12-07T17:52:24;-4.90;99.90
44695;DHT22;32845;59.422;17.930;2022-12-07T17:57:18;-4.90;99.90
44695;DHT22;32845;59.422;17.930;2022-12-07T18:01:49;-4.90;99.90
44695;DHT22;32845;59.422;17.930;2022-12-07T18:06:20;-4.90;99.90
44695;DHT22;32845;59.422;17.930;2022-12-07T18:10:58;-5.00;99.90
44695;DHT22;32845;59.422;17.930;2022-12-07T18:15:28;-5.00;99.90
44695;DHT22;32845;59.422;17.930;2022-12-07T18:19:59;-5.00;99.90
44695;DHT22;32845;59.422;17.930;2022-12-07T18:24:30;-5.00;99.90
44695;DHT22;32845;59.422;17.930;2022-12-07T18:29:00;-5.00;99.90
44695;DHT22;32845;59.422;17.930;2022-12-07T18:33:32;-5.00;99.90
44695;DHT22;32845;59.422;17.930;2022-12-07T18:38:02;-5.10;99.90
44695;DHT22;32845;59.422;17.930;2022-12-07T18:42:33;-5.10;99.90
44695;DHT22;32845;59.422;17.930;2022-12-07T18:47:05;-5.10;99.90
44695;DHT22;32845;59.422;17.930;2022-12-07T18:51:36;-5.10;99.90
44695;DHT22;32845;59.422;17.930;2022-12-07T18:56:16;-5.10;99.90
44695;DHT22;32845;59.422;17.930;2022-12-07T19:00:47;-5.20;99.90
44695;DHT22;32845;59.422;17.930;2022-12-07T19:05:18;-5.20;99.90
44695;DHT22;32845;59.422;17.930;2022-12-07T19:09:48;-5.20;99.90
44695;DHT22;32845;59.422;17.930;2022-12-07T19:14:25;-5.20;99.90
44695;DHT22;32845;59.422;17.930;2022-12-07T19:18:56;-5.20;99.90
44695;DHT22;32845;59.422;17.930;2022-12-07T19:23:27;-5.20;99.90
44695;DHT22;32845;59.422;17.930;2022-12-07T19:27:58;-5.20;99.90
44695;DHT22;32845;59.422;17.930;2022-12-07T19:32:28;-5.20;99.90
44695;DHT22;32845;59.422;17.930;2022-12-07T19:37:00;-5.20;99.90
44695;DHT22;32845;59.422;17.930;2022-12-07T19:41:31;-5.20;99.90
44695;DHT22;32845;59.422;17.930;2022-12-07T19:46:05;-5.20;99.90
44695;DHT22;32845;59.422;17.930;2022-12-07T19:50:35;-5.20;99.90
44695;DHT22;32845;59.422;17.930;2022-12-07T19:55:06;-5.20;99.90
44695;DHT22;32845;59.422;17.930;2022-12-07T19:59:37;-5.20;99.90
44695;DHT22;32845;59.422;17.930;2022-12-07T20:04:11;-5.30;99.90
44695;DHT22;32845;59.422;17.930;2022-12-07T20:08:43;-5.30;99.90
44695;DHT22;32845;59.422;17.930;2022-12-07T20:13:14;-5.30;99.90
44695;DHT22;32845;59.422;17.930;2022-12-07T20:18:01;-5.30;99.90
44695;DHT22;32845;59.422;17.930;2022-12-07T20:22:32;-5.30;99.90
44695;DHT22;32845;59.422;17.930;2022-12-07T20:27:03;-5.40;99.90
44695;DHT22;32845;59.422;17.930;2022-12-07T20:31:34;-5.40;99.90
44695;DHT22;32845;59.422;17.930;2022-12-07T20:36:05;-5.40;99.90
44695;DHT22;32845;59.422;17.930;2022-12-07T20:40:41;-5.40;99.90
44695;DHT22;32845;59.422;17.930;2022-12-07T20:45:15;-5.40;99.90
44695;DHT22;32845;59.422;17.930;2022-12-07T20:49:45;-5.50;99.90
44695;DHT22;32845;59.422;17.930;2022-12-07T20:54:16;-5.50;99.90
44695;DHT22;32845;59.422;17.930;2022-12-07T20:58:47;-5.40;99.90
44695;DHT22;32845;59.422;17.930;2022-12-07T21:03:18;-5.50;99.90
44695;DHT22;32845;59.422;17.930;2022-12-07T21:07:48;-5.40;99.90
44695;DHT22;32845;59.422;17.930;2022-12-07T21:12:19;-5.40;99.90
44695;DHT22;32845;59.422;17.930;2022-12-07T21:16:50;-5.40;99.90
44695;DHT22;32845;59.422;17.930;2022-12-07T21:21:20;-5.40;99.90
44695;DHT22;32845;59.422;17.930;2022-12-07T21:25:51;-5.40;99.90
44695;DHT22;32845;59.422;17.930;2022-12-07T21:30:22;-5.40;99.90
44695;DHT22;32845;59.422;17.930;2022-12-07T21:34:52;-5.40;99.90
44695;DHT22;32845;59.422;17.930;2022-12-07T21:39:23;-5.40;99.90
44695;DHT22;32845;59.422;17.930;2022-12-07T21:43:54;-5.40;99.90
44695;DHT22;32845;59.422;17.930;2022-12-07T21:48:25;-5.40;99.90
44695;DHT22;32845;59.422;17.930;2022-12-07T21:52:56;-5.40;99.90
44695;DHT22;32845;59.422;17.930;2022-12-07T21:57:28;-5.50;99.90
44695;DHT22;32845;59.422;17.930;2022-12-07T22:02:00;-5.50;99.90
44695;DHT22;32845;59.422;17.930;2022-12-07T22:06:33;-5.50;99.90
44695;DHT22;32845;59.422;17.930;2022-12-07T22:11:04;-5.50;99.90
44695;DHT22;32845;59.422;17.930;2022-12-07T22:15:35;-5.50;99.90
44695;DHT22;32845;59.422;17.930;2022-12-07T22:20:09;-5.60;99.90
44695;DHT22;32845;59.422;17.930;2022-12-07T22:24:45;-5.60;99.90
44695;DHT22;32845;59.422;17.930;2022-12-07T22:29:17;-5.70;99.90
44695;DHT22;32845;59.422;17.930;2022-12-07T22:33:48;-5.70;99.90
44695;DHT22;32845;59.422;17.930;2022-12-07T22:38:19;-5.70;99.90
44695;DHT22;32845;59.422;17.930;2022-12-07T22:42:49;-5.70;99.90
44695;DHT22;32845;59.422;17.930;2022-12-07T22:47:25;-5.80;99.90
44695;DHT22;32845;59.422;17.930;2022-12-07T22:51:56;-5.80;99.90
44695;DHT22;32845;59.422;17.930;2022-12-07T22:56:28;-5.80;99.90
44695;DHT22;32845;59.422;17.930;2022-12-07T23:01:09;-5.80;99.90
44695;DHT22;32845;59.422;17.930;2022-12-07T23:05:47;-5.80;99.90
44695;DHT22;32845;59.422;17.930;2022-12-07T23:10:18;-5.90;99.90
44695;DHT22;32845;59.422;17.930;2022-12-07T23:14:49;-5.90;99.90
44695;DHT22;32845;59.422;17.930;2022-12-07T23:19:23;-5.90;99.90
44695;DHT22;32845;59.422;17.930;2022-12-07T23:23:58;-5.90;99.90
44695;DHT22;32845;59.422;17.930;2022-12-07T23:28:29;-5.90;99.90
44695;DHT22;32845;59.422;17.930;2022-12-07T23:33:00;-5.90;99.90
44695;DHT22;32845;59.422;17.930;2022-12-07T23:37:35;-5.90;99.90
44695;DHT22;32845;59.422;17.930;2022-12-07T23:42:06;-5.90;99.90
44695;DHT22;32845;59.422;17.930;2022-12-07T23:46:37;-5.90;99.90
44695;DHT22;32845;59.422;17.930;2022-12-07T23:51:08;-5.90;99.90
44695;DHT22;32845;59.422;17.930;2022-12-07T23:55:45;-6.00;99.90
